Time;durP1;ratioP1;P1;durP2;ratioP2;P2;SDS_P1;SDS_P2;PMS_P1;PMS_P2;Temp;Humidity;BMP_temperature;BMP_pressure;BME280_temperature;BME280_humidity;BME280_pressure;Samples;Min_cycle;Max_cycle;Signal;HPM_P1;HPM_P2
2022/03/21 00:01:26;;;;;;;111.65;42.63;;;;;;;1.40;64.72;102353.50;5075450;28;20077;-80
2022/03/21 00:03:56;;;;;;;109.53;44.10;;;;;;;1.29;64.13;102368.34;5075564;28;20518;-79
2022/03/21 00:06:24;;;;;;;117.03;47.97;;;;;;;1.21;64.47;102359.28;5075393;28;20036;-78
2022/03/21 00:08:52;;;;;;;148.70;57.97;;;;;;;1.29;64.76;102360.38;5075124;28;20123;-78
2022/03/21 00:11:20;;;;;;;169.90;67.85;;;;;;;1.22;64.89;102361.09;5074840;28;20119;-80
2022/03/21 00:13:49;;;;;;;189.02;74.13;;;;;;;1.31;64.70;102361.28;5074989;28;20040;-79
2022/03/21 00:16:17;;;;;;;168.65;70.43;;;;;;;1.21;64.63;102356.63;5074501;28;20064;-79
2022/03/21 00:18:45;;;;;;;175.38;71.15;;;;;;;1.21;64.44;102356.63;5074903;28;20135;-78
2022/03/21 00:21:14;;;;;;;155.68;64.13;;;;;;;1.17;64.90;102357.44;5074999;28;20502;-79
2022/03/21 00:23:41;;;;;;;158.27;61.45;;;;;;;1.19;65.77;102363.69;5073736;28;20072;-80
2022/03/21 00:26:09;;;;;;;143.52;58.60;;;;;;;1.11;65.64;102359.09;5074393;28;20532;-78
2022/03/21 00:28:37;;;;;;;149.65;58.45;;;;;;;1.06;65.30;102358.09;5074911;28;20052;-78
2022/03/21 00:31:04;;;;;;;134.90;53.95;;;;;;;1.10;64.71;102351.06;5074913;28;20051;-79
2022/03/21 00:33:32;;;;;;;136.52;53.53;;;;;;;1.02;65.11;102353.56;5074665;28;20428;-80
2022/03/21 00:36:00;;;;;;;128.27;51.80;;;;;;;0.99;64.92;102362.38;5074578;28;20044;-78
2022/03/21 00:38:29;;;;;;;118.60;47.53;;;;;;;1.02;65.23;102356.22;5074654;28;20044;-78
2022/03/21 00:40:57;;;;;;;99.32;41.53;;;;;;;1.04;64.98;102353.59;5073943;28;20071;-79
2022/03/21 00:43:26;;;;;;;87.50;37.88;;;;;;;1.09;64.90;102349.25;5074494;28;20098;-79
2022/03/21 00:45:57;;;;;;;94.30;39.17;;;;;;;1.08;64.73;102352.78;5074342;28;20123;-79
2022/03/21 00:48:25;;;;;;;80.25;32.95;;;;;;;1.11;63.13;102351.09;5074763;28;20045;-80
2022/03/21 00:50:54;;;;;;;70.63;30.05;;;;;;;1.09;62.96;102354.59;5074332;28;20487;-80
2022/03/21 00:53:22;;;;;;;72.70;31.00;;;;;;;0.96;64.16;102351.66;5074207;28;20128;-79
2022/03/21 00:55:52;;;;;;;67.80;31.33;;;;;;;0.90;65.65;102347.94;5073873;28;20052;-78
2022/03/21 00:58:20;;;;;;;67.30;28.10;;;;;;;0.96;67.14;102345.41;5074463;28;20074;-80
2022/03/21 01:00:48;;;;;;;62.13;27.00;;;;;;;0.81;69.59;102349.50;5074104;28;20048;-80
2022/03/21 01:03:16;;;;;;;64.40;29.20;;;;;;;0.79;71.45;102347.66;5073955;28;20128;-80
2022/03/21 01:05:44;;;;;;;61.65;27.35;;;;;;;0.71;72.56;102347.50;5074065;28;20480;-79
2022/03/21 01:08:12;;;;;;;56.83;25.30;;;;;;;0.81;72.42;102351.25;5074115;28;20056;-79
2022/03/21 01:10:39;;;;;;;56.38;25.02;;;;;;;0.88;71.64;102349.66;5073684;28;20123;-79
2022/03/21 01:13:10;;;;;;;57.67;25.52;;;;;;;0.89;70.56;102351.44;5073336;28;20322;-80
2022/03/21 01:15:37;;;;;;;55.65;24.85;;;;;;;0.90;70.77;102339.94;5073736;28;20072;-79
2022/03/21 01:18:05;;;;;;;57.08;26.08;;;;;;;0.75;71.69;102352.03;5062650;28;20158;-79
2022/03/21 01:20:33;;;;;;;56.85;26.33;;;;;;;0.83;70.97;102350.44;5073786;28;20491;-80
2022/03/21 01:23:00;;;;;;;54.72;26.83;;;;;;;0.80;70.72;102338.81;5073684;28;20127;-80
2022/03/21 01:25:28;;;;;;;61.03;27.80;;;;;;;0.96;69.67;102338.34;5073195;28;20480;-80
2022/03/21 01:27:56;;;;;;;61.75;27.45;;;;;;;0.80;70.02;102337.06;5073711;28;20044;-80
2022/03/21 01:30:25;;;;;;;66.93;27.55;;;;;;;0.77;69.67;102325.44;5073610;28;20044;-78
2022/03/21 01:32:52;;;;;;;61.30;28.48;;;;;;;0.63;70.11;102330.47;5073437;28;20041;-80
2022/03/21 01:35:21;;;;;;;59.58;26.10;;;;;;;0.58;70.70;102331.22;5073350;28;20507;-80
2022/03/21 01:37:49;;;;;;;61.10;27.10;;;;;;;0.58;70.16;102331.22;5073540;28;20134;-80
2022/03/21 01:40:17;;;;;;;69.28;29.88;;;;;;;0.60;70.25;102331.25;5073255;28;20041;-78
2022/03/21 01:42:47;;;;;;;68.95;29.50;;;;;;;0.56;69.54;102335.59;5073372;28;20075;-79
2022/03/21 01:45:15;;;;;;;77.28;35.38;;;;;;;0.55;69.79;102331.13;5072731;28;20180;-81
2022/03/21 01:47:44;;;;;;;88.50;37.15;;;;;;;0.46;70.39;102335.34;5073431;28;20040;-80
2022/03/21 01:50:13;;;;;;;100.90;41.90;;;;;;;0.49;70.14;102338.97;5073417;28;20119;-79
2022/03/21 01:52:43;;;;;;;98.55;40.80;;;;;;;0.57;70.19;102340.06;5072881;28;20051;-80
2022/03/21 01:58:00;;;;;;;113.88;45.30;;;;;;;0.48;70.36;102339.81;5074600;28;20082;-80
2022/03/21 02:00:27;;;;;;;104.53;42.08;;;;;;;0.53;71.00;102330.19;5072417;28;20041;-80
2022/03/21 02:02:56;;;;;;;95.40;38.70;;;;;;;0.40;71.98;102326.31;5073156;28;20075;-79
2022/03/21 02:05:24;;;;;;;84.07;37.75;;;;;;;0.35;72.64;102332.41;5072895;28;20048;-80
2022/03/21 02:07:52;;;;;;;93.00;40.67;;;;;;;0.33;72.43;102323.50;5072757;28;20072;-80
2022/03/21 02:10:20;;;;;;;94.28;37.92;;;;;;;0.33;71.61;102318.19;5073395;28;20538;-80
2022/03/21 02:12:48;;;;;;;77.80;34.15;;;;;;;0.29;70.64;102317.19;5073431;28;20055;-80
2022/03/21 02:15:15;;;;;;;72.85;32.40;;;;;;;0.33;70.50;102320.84;5073207;28;20075;-79
2022/03/21 02:17:44;;;;;;;65.75;31.08;;;;;;;0.36;70.36;102324.44;5072816;28;20078;-81
2022/03/21 02:20:18;;;;;;;81.10;35.53;;;;;;;0.33;70.41;102320.84;5073256;28;20048;-79
2022/03/21 02:22:51;;;;;;;103.95;40.97;;;;;;;0.39;69.38;102323.66;5074343;28;20507;-80
2022/03/21 02:25:29;;;;;;;103.05;40.20;;;;;;;0.36;69.91;102321.78;5074307;28;20484;-81
2022/03/21 02:27:57;;;;;;;138.57;48.20;;;;;;;0.40;69.42;102323.66;5074871;28;20071;-81
2022/03/21 02:30:26;;;;;;;141.55;47.50;;;;;;;0.39;69.45;102321.00;5073453;28;20045;-80
2022/03/21 02:32:53;;;;;;;103.75;39.88;;;;;;;0.23;70.25;102325.91;5073562;28;20049;-79
2022/03/21 02:35:21;;;;;;;103.32;39.42;;;;;;;0.29;70.28;102330.47;5073087;28;20475;-80
2022/03/21 02:37:50;;;;;;;94.43;38.83;;;;;;;0.41;69.38;102329.91;5072978;28;20046;-80
2022/03/21 02:40:18;;;;;;;73.90;32.80;;;;;;;0.28;70.45;102326.94;5073048;28;20056;-80
2022/03/21 02:42:47;;;;;;;69.93;29.90;;;;;;;0.36;71.50;102323.56;5073190;28;20492;-81
2022/03/21 02:45:15;;;;;;;62.83;28.67;;;;;;;0.24;72.84;102335.69;5073186;28;20056;-80
2022/03/21 02:47:42;;;;;;;59.05;27.00;;;;;;;0.19;73.69;102331.97;5075167;28;20052;-80
2022/03/21 02:50:14;;;;;;;59.50;27.67;;;;;;;0.15;74.00;102324.78;5076842;28;20068;-78
2022/03/21 02:52:43;;;;;;;63.13;28.58;;;;;;;0.18;72.71;102326.66;5077533;28;20055;-79
2022/03/21 02:55:11;;;;;;;60.92;27.70;;;;;;;0.15;72.22;102327.44;5076609;28;20055;-78
2022/03/21 02:57:38;;;;;;;62.42;26.98;;;;;;;0.19;71.53;102334.66;5076534;28;20127;-77
2022/03/21 03:00:09;;;;;;;57.28;25.17;;;;;;;0.21;71.19;102332.03;5076712;28;20127;-79
2022/03/21 03:02:36;;;;;;;46.38;22.35;;;;;;;0.20;71.32;102333.78;5078047;28;20046;-80
2022/03/21 03:05:04;;;;;;;47.25;21.58;;;;;;;0.24;72.85;102333.03;5075950;28;20127;-78
2022/03/21 03:07:32;;;;;;;44.65;20.58;;;;;;;0.16;73.44;102331.03;5076459;28;20063;-78
2022/03/21 03:09:59;;;;;;;43.63;19.45;;;;;;;0.21;74.08;102324.97;5076206;28;20054;-80
2022/03/21 03:12:27;;;;;;;38.20;18.58;;;;;;;0.18;74.68;102326.66;5076276;28;20515;-78
2022/03/21 03:14:54;;;;;;;39.25;18.10;;;;;;;0.12;75.29;102319.41;5076100;28;20136;-81
2022/03/21 03:17:24;;;;;;;37.50;17.42;;;;;;;0.10;75.29;102322.03;5075611;28;20187;-79
2022/03/21 03:19:51;;;;;;;37.28;16.70;;;;;;;0.12;75.70;102322.97;5075976;28;20044;-80
2022/03/21 03:22:20;;;;;;;39.13;18.05;;;;;;;0.18;75.94;102318.66;5076468;28;20393;-78
2022/03/21 03:24:47;;;;;;;36.92;17.05;;;;;;;0.11;76.16;102322.91;5076104;28;20090;-80
2022/03/21 03:27:15;;;;;;;37.95;17.33;;;;;;;0.20;75.45;102323.16;5075871;28;20127;-79
2022/03/21 03:29:43;;;;;;;38.80;18.15;;;;;;;0.14;75.70;102318.59;5075927;28;20044;-78
2022/03/21 03:32:10;;;;;;;36.97;17.10;;;;;;;0.09;75.27;102320.22;5075991;28;20517;-78
2022/03/21 03:34:39;;;;;;;39.42;18.65;;;;;;;0.04;75.23;102320.97;5075375;28;20048;-79
2022/03/21 03:37:07;;;;;;;39.30;19.05;;;;;;;0.10;75.24;102326.44;5075908;28;20051;-81
2022/03/21 03:39:35;;;;;;;39.42;18.33;;;;;;;0.00;76.16;102325.31;5075747;28;20067;-77
2022/03/21 03:42:03;;;;;;;35.28;17.30;;;;;;;0.01;75.92;102321.78;5075686;28;20068;-80
2022/03/21 03:44:31;;;;;;;33.90;17.20;;;;;;;0.03;75.70;102332.44;5075787;28;20127;-78
2022/03/21 03:46:58;;;;;;;40.40;17.33;;;;;;;-0.01;76.01;102324.41;5075685;28;20590;-80
2022/03/21 03:49:26;;;;;;;36.67;17.25;;;;;;;-0.04;76.69;102331.38;5075219;28;20118;-80
2022/03/21 03:51:55;;;;;;;37.58;17.38;;;;;;;-0.20;76.62;102322.09;5075511;28;20048;-78
2022/03/21 03:54:23;;;;;;;35.30;16.85;;;;;;;-0.20;76.25;102319.44;5075391;28;20054;-80
2022/03/21 03:56:51;;;;;;;38.95;18.25;;;;;;;-0.18;76.63;102320.38;5075399;28;20048;-81
2022/03/21 03:59:19;;;;;;;38.83;18.83;;;;;;;-0.21;76.13;102307.91;5075112;28;20048;-78
2022/03/21 04:01:46;;;;;;;44.25;21.30;;;;;;;-0.13;76.36;102313.44;5075409;28;20343;-79
2022/03/21 04:04:13;;;;;;;46.53;19.98;;;;;;;-0.13;76.76;102317.84;5074715;28;20052;-79
2022/03/21 04:06:43;;;;;;;47.17;20.00;;;;;;;-0.11;76.15;102316.13;5075087;28;20047;-80
2022/03/21 04:09:12;;;;;;;39.20;19.17;;;;;;;-0.16;75.97;102322.22;5076474;28;20041;-78
2022/03/21 04:11:40;;;;;;;38.80;19.48;;;;;;;-0.10;76.43;102321.50;5075165;28;20049;-78
2022/03/21 04:14:08;;;;;;;41.30;19.40;;;;;;;-0.24;76.75;102317.53;5074822;28;20128;-80
2022/03/21 04:16:36;;;;;;;39.97;19.58;;;;;;;-0.19;76.65;102322.13;5074648;28;20053;-80
2022/03/21 04:19:04;;;;;;;44.28;20.27;;;;;;;-0.22;75.54;102318.47;5074618;28;20387;-80
2022/03/21 04:21:32;;;;;;;38.92;18.80;;;;;;;-0.11;75.76;102327.66;5074806;28;20102;-80
2022/03/21 04:24:00;;;;;;;40.78;19.48;;;;;;;-0.05;75.47;102317.19;5074849;28;20068;-80
2022/03/21 04:26:29;;;;;;;43.08;20.58;;;;;;;-0.05;74.66;102317.19;5074934;28;20044;-80
2022/03/21 04:28:56;;;;;;;45.22;20.88;;;;;;;-0.09;75.37;102330.34;5074791;28;20040;-79
2022/03/21 04:31:24;;;;;;;43.65;20.70;;;;;;;-0.16;74.95;102324.88;5074702;28;20068;-78
2022/03/21 04:33:52;;;;;;;42.70;20.85;;;;;;;-0.26;74.21;102322.81;5074465;28;20503;-79
2022/03/21 04:36:20;;;;;;;45.33;21.50;;;;;;;-0.19;74.53;102329.22;5074579;28;20116;-80
2022/03/21 04:38:47;;;;;;;45.38;20.67;;;;;;;-0.14;73.89;102322.28;5074624;28;20044;-80
2022/03/21 04:41:15;;;;;;;45.15;22.35;;;;;;;-0.36;75.04;102320.78;5074523;28;20119;-79
2022/03/21 04:43:45;;;;;;;44.13;22.05;;;;;;;-0.37;74.38;102333.13;5074517;28;20045;-77
2022/03/21 04:46:13;;;;;;;52.50;24.67;;;;;;;-0.35;73.96;102327.88;5074282;28;20127;-80
2022/03/21 04:48:41;;;;;;;54.83;27.15;;;;;;;-0.32;73.76;102323.53;5073986;28;20499;-80
2022/03/21 04:51:08;;;;;;;71.60;33.65;;;;;;;-0.33;73.29;102332.34;5074398;28;20064;-78
2022/03/21 04:53:36;;;;;;;68.45;31.98;;;;;;;-0.34;73.36;102330.56;5074073;28;20044;-78
2022/03/21 04:56:04;;;;;;;67.32;31.88;;;;;;;-0.37;72.94;102327.81;5074257;28;20518;-80
2022/03/21 04:58:32;;;;;;;68.32;30.98;;;;;;;-0.38;73.09;102331.34;5074076;28;20048;-80
2022/03/21 05:01:01;;;;;;;64.82;29.05;;;;;;;-0.33;73.55;102332.34;5073715;28;20433;-81
2022/03/21 05:03:29;;;;;;;60.15;30.83;;;;;;;-0.27;73.49;102331.66;5074037;28;20040;-78
2022/03/21 05:05:58;;;;;;;60.70;28.15;;;;;;;-0.27;74.97;102330.72;5073842;28;20467;-80
2022/03/21 05:08:26;;;;;;;55.03;26.83;;;;;;;-0.28;75.34;102326.28;5073727;28;20048;-80
2022/03/21 05:10:54;;;;;;;56.10;27.23;;;;;;;-0.33;75.94;102324.41;5073446;28;20050;-81
2022/03/21 05:13:22;;;;;;;57.33;27.73;;;;;;;-0.26;75.35;102325.47;5073146;28;20044;-78
2022/03/21 05:15:49;;;;;;;57.22;27.48;;;;;;;-0.29;75.57;102322.75;5074576;28;20123;-81
2022/03/21 05:18:18;;;;;;;58.15;25.17;;;;;;;-0.17;75.46;102328.38;5083351;28;20060;-80
2022/03/21 05:20:46;;;;;;;63.00;26.85;;;;;;;-0.24;75.39;102321.09;5074381;28;20100;-80
2022/03/21 05:31:28;;;;;;;125.68;48.05;;;;;;;0.07;73.12;102329.94;5070379;28;20554;-78
2022/03/21 05:36:57;;;;;;;70.00;31.45;;;;;;;0.13;73.77;102331.81;4989053;28;20042;-80
2022/03/21 05:39:25;;;;;;;56.20;27.45;;;;;;;0.17;74.51;102333.72;4988501;28;20387;-80
2022/03/21 05:41:53;;;;;;;56.90;27.02;;;;;;;0.25;74.25;102333.91;4988267;28;20081;-80
2022/03/21 05:44:21;;;;;;;128.90;30.20;;;;;;;0.36;74.55;102324.44;4987669;28;20108;-80
2022/03/21 05:46:48;;;;;;;66.25;26.17;;;;;;;0.47;73.79;102326.50;4987713;28;20072;-79
2022/03/21 05:49:17;;;;;;;59.50;25.25;;;;;;;0.58;73.49;102331.22;4988031;28;20561;-79
2022/03/21 05:51:44;;;;;;;50.53;24.35;;;;;;;0.60;72.62;102343.66;4988019;28;20065;-80
2022/03/21 05:54:13;;;;;;;57.97;25.58;;;;;;;0.59;74.14;102342.75;4988466;28;20065;-79
2022/03/21 05:56:43;;;;;;;54.58;24.92;;;;;;;0.65;73.62;102353.56;4988095;28;20575;-79
2022/03/21 06:01:55;;;;;;;53.65;24.65;;;;;;;0.74;74.13;102347.56;4989864;28;20065;-79
2022/03/21 06:04:24;;;;;;;49.03;25.77;;;;;;;0.78;74.52;102348.53;4988166;28;20366;-79
2022/03/21 06:06:52;;;;;;;49.88;24.27;;;;;;;0.96;73.25;102342.75;4993822;28;20051;-79
2022/03/21 06:09:20;;;;;;;50.58;24.35;;;;;;;1.10;73.29;102354.63;5070195;28;20048;-77
2022/03/21 06:11:49;;;;;;;46.85;25.25;;;;;;;1.12;73.48;102344.91;5073222;28;20069;-79
2022/03/21 06:14:18;;;;;;;49.83;23.98;;;;;;;1.27;73.13;102356.75;5072044;28;20045;-79
2022/03/21 06:16:46;;;;;;;49.28;23.75;;;;;;;1.27;74.08;102354.09;5081521;28;20059;-79
2022/03/21 06:19:13;;;;;;;50.45;24.90;;;;;;;1.35;74.05;102341.84;5074776;28;20049;-80
2022/03/21 06:21:43;;;;;;;52.38;24.98;;;;;;;1.44;73.95;102342.06;5073806;28;20074;-79
2022/03/21 06:24:12;;;;;;;52.38;23.90;;;;;;;1.52;73.69;102342.22;5077665;28;20051;-79
2022/03/21 06:26:40;;;;;;;51.50;23.90;;;;;;;1.61;73.64;102344.19;5080193;28;20093;-79
2022/03/21 06:29:08;;;;;;;46.75;23.92;;;;;;;1.66;73.65;102344.28;5076690;28;20040;-80
2022/03/21 06:31:36;;;;;;;48.05;23.40;;;;;;;1.77;72.13;102341.81;5077161;28;20418;-78
2022/03/21 06:34:04;;;;;;;46.90;23.50;;;;;;;1.92;72.38;102344.81;5076918;28;20056;-79
2022/03/21 06:36:32;;;;;;;47.70;22.77;;;;;;;2.02;72.32;102344.13;5076670;28;20048;-79
2022/03/21 06:39:01;;;;;;;45.72;22.23;;;;;;;2.10;72.47;102351.34;5076954;28;20047;-79
2022/03/21 06:41:29;;;;;;;48.35;22.48;;;;;;;2.22;72.36;102356.91;5076833;28;20044;-79
2022/03/21 06:43:57;;;;;;;43.55;22.67;;;;;;;2.24;72.95;102346.28;5076399;28;20048;-79
2022/03/21 06:46:25;;;;;;;45.08;21.13;;;;;;;2.38;72.74;102349.19;5076618;28;20062;-78
2022/03/21 06:48:52;;;;;;;44.97;21.90;;;;;;;2.52;73.20;102346.78;5076628;28;20137;-79
2022/03/21 06:51:20;;;;;;;41.53;20.48;;;;;;;2.57;72.65;102348.63;5076696;28;20044;-79
2022/03/21 06:53:47;;;;;;;49.22;20.90;;;;;;;2.69;72.63;102349.72;5076652;28;20044;-79
2022/03/21 06:56:17;;;;;;;41.30;20.17;;;;;;;2.74;71.94;102343.56;5073755;28;20067;-77
2022/03/21 06:58:45;;;;;;;41.50;20.55;;;;;;;2.84;71.56;102346.38;5075977;28;20075;-78
2022/03/21 07:01:13;;;;;;;41.65;20.67;;;;;;;2.99;71.63;102345.72;5078170;28;20048;-80
2022/03/21 07:03:40;;;;;;;42.17;20.85;;;;;;;3.09;71.19;102349.44;5075934;28;20135;-79
2022/03/21 07:06:08;;;;;;;38.67;20.42;;;;;;;3.22;71.05;102346.06;5075898;28;20044;-78
2022/03/21 07:08:36;;;;;;;43.78;20.08;;;;;;;3.42;70.72;102348.13;5075515;28;20047;-79
2022/03/21 07:11:04;;;;;;;49.17;23.45;;;;;;;3.53;70.45;102353.63;5075725;28;20055;-79
2022/03/21 07:13:33;;;;;;;52.13;24.23;;;;;;;3.58;70.74;102350.13;5075284;28;20045;-79
2022/03/21 07:16:01;;;;;;;46.70;22.60;;;;;;;3.72;69.97;102347.63;5076592;28;20044;-79
2022/03/21 07:18:28;;;;;;;46.03;22.55;;;;;;;3.95;69.34;102347.00;5075281;28;20132;-78
2022/03/21 07:20:56;;;;;;;44.33;22.25;;;;;;;4.04;69.20;102349.78;5075580;28;20037;-78
2022/03/21 07:23:24;;;;;;;42.38;21.75;;;;;;;4.18;68.68;102344.56;5075512;28;20136;-79
2022/03/21 07:25:51;;;;;;;52.22;21.55;;;;;;;4.44;67.89;102348.38;5075383;28;20040;-79
2022/03/21 07:28:19;;;;;;;49.80;22.58;;;;;;;4.48;67.58;102344.84;5074954;28;20119;-77
2022/03/21 07:30:48;;;;;;;45.38;22.73;;;;;;;4.69;67.50;102343.22;5078938;28;20051;-78
2022/03/21 07:33:16;;;;;;;46.33;23.35;;;;;;;4.91;66.54;102337.16;5083193;28;20415;-78
2022/03/21 07:35:44;;;;;;;161.02;67.57;;;;;;;4.99;66.37;102344.34;5080537;28;20501;-77
2022/03/21 07:38:12;;;;;;;128.60;57.40;;;;;;;5.13;66.58;102347.13;5075665;28;20049;-81
2022/03/21 07:40:40;;;;;;;70.07;32.10;;;;;;;5.35;66.27;102350.81;5075452;28;20036;-79
2022/03/21 07:43:07;;;;;;;61.72;30.90;;;;;;;5.34;67.64;102362.44;5075660;28;20044;-79
2022/03/21 07:48:21;;;;;;;68.20;35.50;;;;;;;5.48;67.43;102355.34;5075805;28;20087;-79
2022/03/21 07:50:49;;;;;;;64.25;33.08;;;;;;;5.63;67.78;102356.34;5075920;28;20044;-79
2022/03/21 07:53:16;;;;;;;61.28;34.90;;;;;;;5.73;67.51;102358.16;5075699;28;20068;-80
2022/03/21 07:55:44;;;;;;;70.63;34.35;;;;;;;5.80;67.32;102349.22;5075120;28;20071;-79
2022/03/21 07:58:12;;;;;;;75.50;33.97;;;;;;;5.90;67.32;102360.91;5075227;28;20045;-79
2022/03/21 08:00:41;;;;;;;72.15;33.08;;;;;;;5.76;67.91;102351.91;5075350;28;20044;-80
2022/03/21 08:03:09;;;;;;;77.22;32.38;;;;;;;5.84;67.26;102355.53;5075363;28;20052;-80
2022/03/21 08:05:38;;;;;;;69.35;30.10;;;;;;;5.80;67.27;102349.22;5075105;28;20048;-79
2022/03/21 08:08:07;;;;;;;62.90;28.10;;;;;;;5.98;67.21;102357.34;5075245;28;20114;-78
2022/03/21 08:10:34;;;;;;;64.03;28.67;;;;;;;6.17;67.01;102347.59;5075297;28;20593;-80
2022/03/21 08:13:02;;;;;;;81.57;31.90;;;;;;;6.36;66.15;102343.13;5075625;28;20048;-80
2022/03/21 08:15:30;;;;;;;46.75;24.88;;;;;;;6.49;66.03;102341.38;5075309;28;20574;-80
2022/03/21 08:17:59;;;;;;;44.28;23.45;;;;;;;6.50;65.92;102335.97;5074443;28;20423;-79
2022/03/21 08:20:33;;;;;;;44.13;21.85;;;;;;;6.58;65.71;102340.50;5074836;28;20045;-81
2022/03/21 08:23:03;;;;;;;36.05;20.17;;;;;;;6.64;65.57;102337.78;5075268;28;20052;-78
2022/03/21 08:25:30;;;;;;;55.17;30.92;;;;;;;6.79;65.43;102342.28;5074650;28;20495;-79
2022/03/21 08:27:58;;;;;;;43.05;22.52;;;;;;;6.95;65.29;102341.34;5074832;28;20044;-82
2022/03/21 08:30:27;;;;;;;36.53;21.27;;;;;;;7.02;65.34;102338.66;5074689;28;20544;-80
2022/03/21 08:32:55;;;;;;;43.58;24.85;;;;;;;7.13;65.17;102331.44;5074691;28;20097;-80
2022/03/21 08:35:22;;;;;;;42.22;21.33;;;;;;;7.17;64.59;102338.63;5074660;28;20045;-78
2022/03/21 08:37:50;;;;;;;44.45;22.92;;;;;;;7.09;64.74;102329.66;5071167;28;20055;-78
2022/03/21 08:40:19;;;;;;;47.17;24.88;;;;;;;6.89;65.41;102333.31;5070759;28;20068;-78
2022/03/21 08:42:47;;;;;;;41.50;22.10;;;;;;;7.30;64.88;102333.22;5070735;28;20050;-79
2022/03/21 08:45:15;;;;;;;39.08;21.77;;;;;;;7.50;64.68;102325.97;5070267;28;20045;-79
2022/03/21 08:47:43;;;;;;;40.90;20.77;;;;;;;7.64;64.37;102325.03;5075406;28;20036;-78
2022/03/21 08:50:12;;;;;;;36.00;20.27;;;;;;;7.49;62.55;102313.41;5076426;28;20060;-79
2022/03/21 08:52:40;;;;;;;36.45;19.40;;;;;;;7.59;63.63;102321.47;5078728;28;20128;-78
2022/03/21 08:55:08;;;;;;;33.28;19.35;;;;;;;7.82;61.80;102316.84;5069716;28;20040;-80
2022/03/21 08:57:38;;;;;;;31.92;18.17;;;;;;;7.68;62.07;102319.59;5069669;28;20036;-79
2022/03/21 09:00:07;;;;;;;37.50;18.80;;;;;;;7.92;61.60;102319.47;5078383;28;20119;-79
2022/03/21 09:02:35;;;;;;;33.40;17.75;;;;;;;8.14;61.04;102322.94;5074641;28;20438;-79
2022/03/21 09:05:04;;;;;;;26.42;14.68;;;;;;;8.33;58.87;102315.63;5075294;28;20403;-77
2022/03/21 09:07:32;;;;;;;30.90;14.15;;;;;;;8.49;56.68;102312.84;5075910;28;20046;-79
2022/03/21 09:09:59;;;;;;;28.52;14.32;;;;;;;8.63;56.51;102310.94;5071212;28;20114;-79
2022/03/21 09:12:27;;;;;;;26.65;14.45;;;;;;;8.75;55.30;102319.81;5070922;28;20040;-79
2022/03/21 09:14:56;;;;;;;26.73;14.65;;;;;;;8.84;54.21;102314.34;5071092;28;20072;-79
2022/03/21 09:17:24;;;;;;;25.90;14.65;;;;;;;8.94;54.14;102318.75;5069559;28;20063;-79
2022/03/21 09:19:52;;;;;;;30.83;14.15;;;;;;;8.94;53.22;102316.03;5070178;28;20041;-79
2022/03/21 09:22:21;;;;;;;25.98;13.40;;;;;;;8.87;52.09;102308.94;5069236;28;20127;-79
2022/03/21 09:24:49;;;;;;;23.95;13.75;;;;;;;9.04;52.08;102306.06;5052001;28;20040;-79
2022/03/21 09:27:17;;;;;;;28.10;13.43;;;;;;;9.13;50.78;102308.66;5069875;28;20067;-80
2022/03/21 09:29:44;;;;;;;23.65;12.68;;;;;;;9.30;48.26;102306.69;5066820;28;20159;-79
2022/03/21 09:32:15;;;;;;;30.58;14.70;;;;;;;9.45;47.55;102306.47;5079150;28;20048;-78
2022/03/21 09:34:43;;;;;;;23.67;12.10;;;;;;;9.56;46.87;102306.34;5073107;28;20051;-79
2022/03/21 09:37:11;;;;;;;26.25;12.45;;;;;;;9.67;44.51;102304.41;5074525;28;20073;-79
2022/03/21 09:39:38;;;;;;;28.02;15.65;;;;;;;9.61;44.51;102301.78;5067024;28;20055;-78
2022/03/21 09:42:06;;;;;;;29.77;14.48;;;;;;;9.47;42.11;102296.56;5050120;28;20052;-79
2022/03/21 09:44:35;;;;;;;30.73;16.15;;;;;;;9.64;42.87;102290.06;5049300;28;20045;-79
2022/03/21 09:48:08;;;;;;;25.30;13.73;;;;;;;9.68;44.80;102295.38;5049564;28;20110;-79
2022/03/21 09:49:58;;;;;;;30.27;14.95;;;;;;;9.88;45.05;102290.63;5049735;28;20045;-77
2022/03/21 09:52:26;;;;;;;22.73;12.50;;;;;;;10.00;45.91;102283.25;5051036;28;20047;-77
2022/03/21 09:54:54;;;;;;;26.88;13.30;;;;;;;10.12;45.73;102287.56;5049243;28;20128;-80
2022/03/21 09:57:21;;;;;;;24.30;14.18;;;;;;;10.25;43.96;102288.28;5049280;28;20531;-81
2022/03/21 09:59:49;;;;;;;29.35;14.63;;;;;;;10.19;43.58;102279.38;5049588;28;20040;-77
2022/03/21 10:02:18;;;;;;;30.27;14.45;;;;;;;10.18;44.80;102280.28;5049624;28;20450;-78
2022/03/21 10:04:47;;;;;;;27.90;15.43;;;;;;;10.19;45.33;102274.84;5049599;28;20049;-78
2022/03/21 10:07:24;;;;;;;28.85;14.65;;;;;;;10.09;46.11;102275.91;5049192;28;20474;-79
2022/03/21 10:10:07;;;;;;;30.23;15.00;;;;;;;10.07;45.41;102267.84;5050771;28;20131;-77
2022/03/21 10:12:35;;;;;;;25.33;14.57;;;;;;;10.28;45.65;102265.72;5068430;28;20123;-77
2022/03/21 10:15:06;;;;;;;26.27;14.20;;;;;;;10.42;43.63;102266.44;5072150;28;20395;-78
2022/03/21 10:17:34;;;;;;;26.55;14.43;;;;;;;10.52;43.71;102268.97;5068861;28;20048;-78
2022/03/21 10:20:02;;;;;;;25.45;13.38;;;;;;;10.57;43.09;102267.06;5069337;28;20060;-77
2022/03/21 10:22:43;;;;;;;27.17;13.70;;;;;;;10.21;41.47;102264.03;5071142;28;20050;-78
2022/03/21 10:25:16;;;;;;;26.60;14.27;;;;;;;10.33;42.38;102268.34;5072838;28;20146;-77
2022/03/21 10:27:45;;;;;;;26.95;12.70;;;;;;;10.34;42.40;102253.91;5073032;28;20049;-77
2022/03/21 10:30:15;;;;;;;26.52;14.10;;;;;;;10.60;42.83;102255.28;5071201;28;20123;-78
2022/03/21 10:32:44;;;;;;;25.90;12.88;;;;;;;10.75;42.75;102254.13;5072007;28;20460;-78
2022/03/21 10:35:13;;;;;;;26.10;13.73;;;;;;;10.76;42.84;102254.09;5070939;28;20040;-77
2022/03/21 10:37:47;;;;;;;24.02;13.35;;;;;;;10.87;43.58;102246.69;5071190;28;20049;-77
2022/03/21 10:40:26;;;;;;;23.75;13.20;;;;;;;10.86;43.40;102244.03;5068871;28;20058;-78
2022/03/21 10:42:57;;;;;;;23.67;13.05;;;;;;;11.07;43.42;102250.81;5071242;28;20127;-79
2022/03/21 10:45:26;;;;;;;23.85;13.40;;;;;;;11.16;43.07;102241.59;5072196;28;20040;-78
2022/03/21 10:47:54;;;;;;;24.65;13.70;;;;;;;11.16;42.35;102239.81;5071259;28;20048;-78
2022/03/21 10:50:29;;;;;;;23.17;13.80;;;;;;;11.19;41.06;102243.38;5070752;28;20480;-77
2022/03/21 10:53:10;;;;;;;23.58;12.80;;;;;;;11.07;42.03;102241.78;5068838;28;20116;-78
2022/03/21 10:55:39;;;;;;;25.15;14.07;;;;;;;11.20;42.30;102240.59;5069649;28;20574;-78
2022/03/21 10:58:07;;;;;;;26.45;13.70;;;;;;;11.29;42.32;102239.53;5071549;28;20064;-79
2022/03/21 11:00:35;;;;;;;28.17;14.55;;;;;;;11.23;42.24;102234.25;5071903;28;20044;-78
2022/03/21 11:03:06;;;;;;;24.98;14.30;;;;;;;11.40;42.47;102233.91;5074254;28;20159;-77
2022/03/21 11:05:37;;;;;;;29.83;15.50;;;;;;;11.52;42.30;102232.75;5070266;28;20167;-78
2022/03/21 11:08:09;;;;;;;25.63;13.82;;;;;;;11.49;42.92;102224.69;5073909;28;20414;-78
2022/03/21 11:10:38;;;;;;;25.83;15.10;;;;;;;11.59;43.55;102224.44;5076866;28;20119;-79
2022/03/21 11:13:06;;;;;;;27.77;15.48;;;;;;;11.68;43.41;102217.06;5075714;28;20040;-77
2022/03/21 11:15:36;;;;;;;25.55;15.00;;;;;;;11.65;42.65;102211.72;5075382;28;20119;-76
2022/03/21 11:18:04;;;;;;;30.38;15.05;;;;;;;11.80;42.47;102211.34;5074280;28;20098;-77
2022/03/21 11:20:32;;;;;;;25.02;14.85;;;;;;;11.92;43.15;102211.97;5074707;28;20401;-77
2022/03/21 11:23:01;;;;;;;26.05;15.60;;;;;;;11.83;42.23;102196.81;5074472;28;20040;-79
2022/03/21 11:25:32;;;;;;;30.77;15.95;;;;;;;12.02;42.44;102202.72;5072021;28;20127;-79
2022/03/21 11:28:50;;;;;;;27.30;15.77;;;;;;;11.81;41.93;102198.66;5078373;28;20044;-80
2022/03/21 11:31:51;;;;;;;27.67;14.90;;;;;;;11.98;42.15;102193.75;5074441;28;20051;-78
2022/03/21 11:34:29;;;;;;;48.47;16.80;;;;;;;12.08;41.88;102194.47;5059625;28;20048;-78
2022/03/21 11:36:58;;;;;;;29.13;15.63;;;;;;;12.12;41.60;102187.13;5074008;28;20098;-78
2022/03/21 11:39:26;;;;;;;30.75;16.60;;;;;;;12.05;40.92;102181.00;5074988;28;20049;-76
2022/03/21 11:42:00;;;;;;;26.88;15.38;;;;;;;12.12;41.02;102179.91;5072671;28;20045;-77